Sarah Schulte — 5BPA3 — position and weather

sailwx.info

Track history (hours):
 
Tides and Currents Weather Stations Pressure Air Temp Water Temp Dewpoint Dewpoint Depression Visibility Wind Speed Wind Dir Waves Ship Positions

Sarah Schulte

Last reported at 2018-Apr-10 01:26 UTC. Time now 2018-Apr-24 08:56 UTC.
Position N 01°21' E 103°33'.
Warning: this ship's position is 14 days out of date.

Length 222 m; draft 11 m.

Type: Ship. MMSI: 210409000.

Date/timePositionNaut miles runAvg speedWind from/ knotsBaromVisibWave heightAir tempDewpointWater temp
2018-Apr-10 01:26N 01°21' E 103°33'1 2.6
2018-Apr-10 00:56N 01°20' E 103°33'2 4.3
2018-Apr-10 00:29N 01°18' E 103°33'3 5.9
2018-Apr-09 23:59N 01°15' E 103°32'3 4.8
2018-Apr-09 23:26N 01°13' E 103°34'3 7.6
2018-Apr-09 22:58N 01°12' E 103°37'3 5.4
2018-Apr-09 22:30N 01°12' E 103°39'4 8.9
2018-Apr-09 22:00N 01°15' E 103°43'4 7.1
2018-Apr-09 21:30N 01°17' E 103°46'0 0.0
2018-Apr-09 20:55N 01°17' E 103°46'0 0.0
2018-Apr-09 20:26N 01°17' E 103°46'0 0.0
2018-Apr-09 19:56N 01°17' E 103°46'0 0.0
2018-Apr-09 19:25N 01°17' E 103°46'0 0.0
2018-Apr-09 18:49N 01°17' E 103°46'0 0.0
2018-Apr-09 18:26N 01°17' E 103°46'0 0.0
2018-Apr-09 17:55N 01°17' E 103°46'0 0.0
2018-Apr-09 17:28N 01°17' E 103°46'0 0.0
2018-Apr-09 16:49N 01°17' E 103°46'0 0.0
2018-Apr-09 16:28N 01°17' E 103°46'0 0.0
2018-Apr-09 15:45N 01°17' E 103°46'0 0.0
2018-Apr-09 15:28N 01°17' E 103°46'0 0.0
2018-Apr-09 14:57N 01°17' E 103°46'0 0.0
2018-Apr-09 14:26N 01°17' E 103°46'0 0.0
2018-Apr-09 13:56N 01°17' E 103°46'0 0.0
2018-Apr-09 13:20N 01°17' E 103°46'0 0.0
2018-Apr-09 12:58N 01°17' E 103°46'0 0.0
2018-Apr-09 12:25N 01°17' E 103°46'0 0.0
2018-Apr-09 11:58N 01°17' E 103°46'0 0.0
2018-Apr-09 11:24N 01°17' E 103°46'0 0.0
2018-Apr-09 10:55N 01°17' E 103°46'0 0.0
2018-Apr-09 10:24N 01°17' E 103°46'0 0.0
2018-Apr-09 09:58N 01°17' E 103°46'0 0.0
2018-Apr-09 09:28N 01°17' E 103°46'0 0.0
2018-Apr-09 08:57N 01°17' E 103°46'0 0.0
2018-Apr-09 08:28N 01°17' E 103°46'0 0.0
2018-Apr-09 07:58N 01°17' E 103°46'0 0.1
2018-Apr-09 07:30N 01°17' E 103°46'1 1.8
2018-Apr-09 07:01N 01°17' E 103°45'2 4.6
2018-Apr-09 06:30N 01°15' E 103°43'612.7
2018-Apr-09 06:00N 01°12' E 103°38'3 5.9
2018-Apr-09 05:30N 01°11' E 103°35'4 8.0
2018-Apr-09 04:58N 01°10' E 103°31'4 7.9
2018-Apr-09 04:28N 01°10' E 103°27'5 9.3
2018-Apr-09 03:57N 01°13' E 103°23'  
2018-Apr-05 07:11N 01°14' E 103°27'315.5
2018-Apr-05 06:59N 01°14' E 103°30'816.8
2018-Apr-05 06:29N 01°12' E 103°38'510.4
2018-Apr-05 06:00N 01°14' E 103°42'4 8.1
2018-Apr-05 05:30N 01°17' E 103°45'0 0.0
2018-Apr-05 04:51N 01°17' E 103°45'0 0.2
2018-Apr-05 04:30N 01°17' E 103°46'0 0.1
2018-Apr-05 04:00N 01°17' E 103°45'0 0.0
2018-Apr-05 03:30N 01°17' E 103°45'0 0.0
2018-Apr-05 02:51N 01°17' E 103°45'0 0.0
2018-Apr-05 02:30N 01°17' E 103°45'0 0.1
2018-Apr-05 02:00N 01°17' E 103°46'0 0.1
2018-Apr-05 01:30N 01°17' E 103°45'0 0.0
2018-Apr-05 00:57N 01°17' E 103°45'0 0.0
2018-Apr-05 00:30N 01°17' E 103°45'0 0.0
2018-Apr-04 23:57N 01°17' E 103°45'0 0.0
2018-Apr-04 23:30N 01°17' E 103°45'0 0.0
2018-Apr-04 22:57N 01°17' E 103°45'0 0.0
2018-Apr-04 22:30N 01°17' E 103°45'0 0.0
2018-Apr-04 21:57N 01°17' E 103°45'0 0.0
2018-Apr-04 21:30N 01°17' E 103°45'0 0.0
2018-Apr-04 20:57N 01°17' E 103°45'0 0.0
2018-Apr-04 20:30N 01°17' E 103°45'0 0.0
2018-Apr-04 20:00N 01°17' E 103°45'0 0.0
2018-Apr-04 19:30N 01°17' E 103°45'0 0.0
2018-Apr-04 18:57N 01°17' E 103°45'0 0.0
2018-Apr-04 18:27N 01°17' E 103°45'0 0.0
2018-Apr-04 18:00N 01°17' E 103°45'0 0.0
2018-Apr-04 17:27N 01°17' E 103°45'0 0.0
2018-Apr-04 16:57N 01°17' E 103°45'0 0.0
2018-Apr-04 16:30N 01°17' E 103°45'0 0.0
2018-Apr-04 16:00N 01°17' E 103°45'0 0.1
2018-Apr-04 15:30N 01°17' E 103°46'0 0.1
2018-Apr-04 14:58N 01°17' E 103°45'0 0.0
2018-Apr-04 14:28N 01°17' E 103°45'0 0.0
2018-Apr-04 13:58N 01°17' E 103°45'0 0.0
2018-Apr-04 13:22N 01°17' E 103°45'0 0.0
2018-Apr-04 12:59N 01°17' E 103°45'0 0.0
2018-Apr-04 12:29N 01°17' E 103°45'0 0.5
2018-Apr-04 12:01N 01°17' E 103°46'1 2.1
2018-Apr-04 11:30N 01°17' E 103°45'4 9.0
2018-Apr-04 11:00N 01°13' E 103°47'1 2.5
2018-Apr-04 10:28N 01°13' E 103°49'0 0.1
2018-Apr-04 09:57N 01°13' E 103°49'0 0.0
2018-Apr-04 09:30N 01°13' E 103°49'0 0.0
2018-Apr-04 09:00N 01°13' E 103°49'0 0.0
2018-Apr-04 08:28N 01°13' E 103°49'0 0.0
2018-Apr-04 07:59N 01°13' E 103°49'0 0.0
2018-Apr-04 07:27N 01°13' E 103°49'0 0.0
2018-Apr-04 07:00N 01°13' E 103°49'0 0.0
2018-Apr-04 06:29N 01°13' E 103°49'0 0.0
2018-Apr-04 05:58N 01°13' E 103°49'0 0.1
2018-Apr-04 04:52N 01°13' E 103°49'0 0.0
2018-Apr-04 04:30N 01°13' E 103°49'0 0.0
2018-Apr-04 03:59N 01°13' E 103°49'0 0.1
2018-Apr-04 03:15N 01°13' E 103°49'0 0.1
2018-Apr-04 02:58N 01°13' E 103°49'0 0.1
2018-Apr-04 02:29N 01°13' E 103°49'0 0.0
2018-Apr-04 01:52N 01°13' E 103°49'0 0.2
2018-Apr-04 01:28N 01°13' E 103°49'0 0.1
2018-Apr-04 00:53N 01°13' E 103°49'0 0.0
2018-Apr-04 00:30N 01°13' E 103°49'0 0.1
2018-Apr-03 23:58N 01°13' E 103°49'0 0.0
2018-Apr-03 23:29N 01°13' E 103°49'2 3.5
2018-Apr-03 23:00N 01°13' E 103°47'511.0
2018-Apr-03 22:31N 01°13' E 103°42'612.1
2018-Apr-03 22:00N 01°12' E 103°36'2 3.5
2018-Apr-03 21:30N 01°11' E 103°35'3 5.9
2018-Apr-03 21:01N 01°09' E 103°33'1 2.8
2018-Apr-03 20:29N 01°09' E 103°32'0 0.7
2018-Apr-03 20:01N 01°10' E 103°32'3 6.0
2018-Apr-03 19:29N 01°13' E 103°32'611.8
2018-Apr-03 18:59N 01°18' E 103°33'2 1.6
2018-Apr-03 18:00N 01°20' E 103°33'0 0.0
2018-Apr-03 17:28N 01°20' E 103°33'0 0.0
2018-Apr-03 16:54N 01°20' E 103°33'0 0.0
2018-Apr-03 07:22N 01°20' E 103°33'0 0.0
2018-Apr-03 06:48N 01°20' E 103°33'0 0.0
2018-Apr-03 06:12N 01°20' E 103°33'0 0.0
2018-Apr-03 05:46N 01°20' E 103°33'0 0.0
2018-Apr-03 04:18N 01°20' E 103°33'0 0.0
2018-Apr-03 03:40N 01°20' E 103°33'0 0.0
2018-Apr-03 02:40N 01°20' E 103°33'0 0.3
2018-Apr-03 02:22N 01°20' E 103°33'0 0.2
2018-Apr-03 01:59N 01°20' E 103°33'0 0.0
2018-Apr-03 01:08N 01°20' E 103°33'0 0.0
2018-Apr-03 00:41N 01°20' E 103°33'0 0.0
2018-Apr-02 23:19N 01°20' E 103°33'0 0.2
2018-Apr-02 22:59N 01°20' E 103°33'2 3.3
2018-Apr-02 22:29N 01°18' E 103°33'5 9.8
2018-Apr-02 22:00N 01°14' E 103°32'3 5.3
2018-Apr-02 21:30N 01°12' E 103°30'4 6.8
2018-Apr-02 20:53N 01°10' E 103°26'  
Track history (hours):
 
Tides and Currents Weather Stations Pressure Air Temp Water Temp Dewpoint Dewpoint Depression Visibility Wind Speed Wind Dir Waves Ship Positions

Sarah Schulte

Last reported at 2018-Apr-10 01:26 UTC. Time now 2018-Apr-24 08:56 UTC.
Position N 01°21' E 103°33'.
Warning: this ship's position is 14 days out of date.

Length 222 m; draft 11 m.

Type: Ship. MMSI: 210409000.

Date/timePositionNaut miles runAvg speedWind from/ knotsBaromVisibWave heightAir tempDewpointWater temp
2018-Apr-10 01:26N 01°21' E 103°33'1 2.6
2018-Apr-10 00:56N 01°20' E 103°33'2 4.3
2018-Apr-10 00:29N 01°18' E 103°33'3 5.9
2018-Apr-09 23:59N 01°15' E 103°32'3 4.8
2018-Apr-09 23:26N 01°13' E 103°34'3 7.6
2018-Apr-09 22:58N 01°12' E 103°37'3 5.4
2018-Apr-09 22:30N 01°12' E 103°39'4 8.9
2018-Apr-09 22:00N 01°15' E 103°43'4 7.1
2018-Apr-09 21:30N 01°17' E 103°46'0 0.0
2018-Apr-09 20:55N 01°17' E 103°46'0 0.0
2018-Apr-09 20:26N 01°17' E 103°46'0 0.0
2018-Apr-09 19:56N 01°17' E 103°46'0 0.0
2018-Apr-09 19:25N 01°17' E 103°46'0 0.0
2018-Apr-09 18:49N 01°17' E 103°46'0 0.0
2018-Apr-09 18:26N 01°17' E 103°46'0 0.0
2018-Apr-09 17:55N 01°17' E 103°46'0 0.0
2018-Apr-09 17:28N 01°17' E 103°46'0 0.0
2018-Apr-09 16:49N 01°17' E 103°46'0 0.0
2018-Apr-09 16:28N 01°17' E 103°46'0 0.0
2018-Apr-09 15:45N 01°17' E 103°46'0 0.0
2018-Apr-09 15:28N 01°17' E 103°46'0 0.0
2018-Apr-09 14:57N 01°17' E 103°46'0 0.0
2018-Apr-09 14:26N 01°17' E 103°46'0 0.0
2018-Apr-09 13:56N 01°17' E 103°46'0 0.0
2018-Apr-09 13:20N 01°17' E 103°46'0 0.0
2018-Apr-09 12:58N 01°17' E 103°46'0 0.0
2018-Apr-09 12:25N 01°17' E 103°46'0 0.0
2018-Apr-09 11:58N 01°17' E 103°46'0 0.0
2018-Apr-09 11:24N 01°17' E 103°46'0 0.0
2018-Apr-09 10:55N 01°17' E 103°46'0 0.0
2018-Apr-09 10:24N 01°17' E 103°46'0 0.0
2018-Apr-09 09:58N 01°17' E 103°46'0 0.0
2018-Apr-09 09:28N 01°17' E 103°46'0 0.0
2018-Apr-09 08:57N 01°17' E 103°46'0 0.0
2018-Apr-09 08:28N 01°17' E 103°46'0 0.0
2018-Apr-09 07:58N 01°17' E 103°46'0 0.1
2018-Apr-09 07:30N 01°17' E 103°46'1 1.8
2018-Apr-09 07:01N 01°17' E 103°45'2 4.6
2018-Apr-09 06:30N 01°15' E 103°43'612.7
2018-Apr-09 06:00N 01°12' E 103°38'3 5.9
2018-Apr-09 05:30N 01°11' E 103°35'4 8.0
2018-Apr-09 04:58N 01°10' E 103°31'4 7.9
2018-Apr-09 04:28N 01°10' E 103°27'5 9.3
2018-Apr-09 03:57N 01°13' E 103°23'  
2018-Apr-05 07:11N 01°14' E 103°27'315.5
2018-Apr-05 06:59N 01°14' E 103°30'816.8
2018-Apr-05 06:29N 01°12' E 103°38'510.4
2018-Apr-05 06:00N 01°14' E 103°42'4 8.1
2018-Apr-05 05:30N 01°17' E 103°45'0 0.0
2018-Apr-05 04:51N 01°17' E 103°45'0 0.2
2018-Apr-05 04:30N 01°17' E 103°46'0 0.1
2018-Apr-05 04:00N 01°17' E 103°45'0 0.0
2018-Apr-05 03:30N 01°17' E 103°45'0 0.0
2018-Apr-05 02:51N 01°17' E 103°45'0 0.0
2018-Apr-05 02:30N 01°17' E 103°45'0 0.1
2018-Apr-05 02:00N 01°17' E 103°46'0 0.1
2018-Apr-05 01:30N 01°17' E 103°45'0 0.0
2018-Apr-05 00:57N 01°17' E 103°45'0 0.0
2018-Apr-05 00:30N 01°17' E 103°45'0 0.0
2018-Apr-04 23:57N 01°17' E 103°45'0 0.0
2018-Apr-04 23:30N 01°17' E 103°45'0 0.0
2018-Apr-04 22:57N 01°17' E 103°45'0 0.0
2018-Apr-04 22:30N 01°17' E 103°45'0 0.0
2018-Apr-04 21:57N 01°17' E 103°45'0 0.0
2018-Apr-04 21:30N 01°17' E 103°45'0 0.0
2018-Apr-04 20:57N 01°17' E 103°45'0 0.0
2018-Apr-04 20:30N 01°17' E 103°45'0 0.0
2018-Apr-04 20:00N 01°17' E 103°45'0 0.0
2018-Apr-04 19:30N 01°17' E 103°45'0 0.0
2018-Apr-04 18:57N 01°17' E 103°45'0 0.0
2018-Apr-04 18:27N 01°17' E 103°45'0 0.0
2018-Apr-04 18:00N 01°17' E 103°45'0 0.0
2018-Apr-04 17:27N 01°17' E 103°45'0 0.0
2018-Apr-04 16:57N 01°17' E 103°45'0 0.0
2018-Apr-04 16:30N 01°17' E 103°45'0 0.0
2018-Apr-04 16:00N 01°17' E 103°45'0 0.1
2018-Apr-04 15:30N 01°17' E 103°46'0 0.1
2018-Apr-04 14:58N 01°17' E 103°45'0 0.0
2018-Apr-04 14:28N 01°17' E 103°45'0 0.0
2018-Apr-04 13:58N 01°17' E 103°45'0 0.0
2018-Apr-04 13:22N 01°17' E 103°45'0 0.0
2018-Apr-04 12:59N 01°17' E 103°45'0 0.0
2018-Apr-04 12:29N 01°17' E 103°45'0 0.5
2018-Apr-04 12:01N 01°17' E 103°46'1 2.1
2018-Apr-04 11:30N 01°17' E 103°45'4 9.0
2018-Apr-04 11:00N 01°13' E 103°47'1 2.5
2018-Apr-04 10:28N 01°13' E 103°49'0 0.1
2018-Apr-04 09:57N 01°13' E 103°49'0 0.0
2018-Apr-04 09:30N 01°13' E 103°49'0 0.0
2018-Apr-04 09:00N 01°13' E 103°49'0 0.0
2018-Apr-04 08:28N 01°13' E 103°49'0 0.0
2018-Apr-04 07:59N 01°13' E 103°49'0 0.0
2018-Apr-04 07:27N 01°13' E 103°49'0 0.0
2018-Apr-04 07:00N 01°13' E 103°49'0 0.0
2018-Apr-04 06:29N 01°13' E 103°49'0 0.0
2018-Apr-04 05:58N 01°13' E 103°49'0 0.1
2018-Apr-04 04:52N 01°13' E 103°49'0 0.0
2018-Apr-04 04:30N 01°13' E 103°49'0 0.0
2018-Apr-04 03:59N 01°13' E 103°49'0 0.1
2018-Apr-04 03:15N 01°13' E 103°49'0 0.1
2018-Apr-04 02:58N 01°13' E 103°49'0 0.1
2018-Apr-04 02:29N 01°13' E 103°49'0 0.0
2018-Apr-04 01:52N 01°13' E 103°49'0 0.2
2018-Apr-04 01:28N 01°13' E 103°49'0 0.1
2018-Apr-04 00:53N 01°13' E 103°49'0 0.0
2018-Apr-04 00:30N 01°13' E 103°49'0 0.1
2018-Apr-03 23:58N 01°13' E 103°49'0 0.0
2018-Apr-03 23:29N 01°13' E 103°49'2 3.5
2018-Apr-03 23:00N 01°13' E 103°47'511.0
2018-Apr-03 22:31N 01°13' E 103°42'612.1
2018-Apr-03 22:00N 01°12' E 103°36'2 3.5
2018-Apr-03 21:30N 01°11' E 103°35'3 5.9
2018-Apr-03 21:01N 01°09' E 103°33'1 2.8
2018-Apr-03 20:29N 01°09' E 103°32'0 0.7
2018-Apr-03 20:01N 01°10' E 103°32'3 6.0
2018-Apr-03 19:29N 01°13' E 103°32'611.8
2018-Apr-03 18:59N 01°18' E 103°33'2 1.6
2018-Apr-03 18:00N 01°20' E 103°33'0 0.0
2018-Apr-03 17:28N 01°20' E 103°33'0 0.0
2018-Apr-03 16:54N 01°20' E 103°33'0 0.0
2018-Apr-03 07:22N 01°20' E 103°33'0 0.0
2018-Apr-03 06:48N 01°20' E 103°33'0 0.0
2018-Apr-03 06:12N 01°20' E 103°33'0 0.0
2018-Apr-03 05:46N 01°20' E 103°33'0 0.0
2018-Apr-03 04:18N 01°20' E 103°33'0 0.0
2018-Apr-03 03:40N 01°20' E 103°33'0 0.0
2018-Apr-03 02:40N 01°20' E 103°33'0 0.3
2018-Apr-03 02:22N 01°20' E 103°33'0 0.2
2018-Apr-03 01:59N 01°20' E 103°33'0 0.0
2018-Apr-03 01:08N 01°20' E 103°33'0 0.0
2018-Apr-03 00:41N 01°20' E 103°33'0 0.0
2018-Apr-02 23:19N 01°20' E 103°33'0 0.2
2018-Apr-02 22:59N 01°20' E 103°33'2 3.3
2018-Apr-02 22:29N 01°18' E 103°33'5 9.8
2018-Apr-02 22:00N 01°14' E 103°32'3 5.3
2018-Apr-02 21:30N 01°12' E 103°30'4 6.8
2018-Apr-02 20:53N 01°10' E 103°26'  

Dump ship's entire track history